地図

経路データ

SID SEASON NUMBER BASIN SUBBASIN NAME ISO_TIME NATURE LAT LON WMO_WIND WMO_PRES WMO_AGENCY TRACK_TYPE DIST2LAND LANDFALL IFLAG USA_AGENCY USA_ATCF_ID USA_LAT USA_LON USA_RECORD USA_STATUS USA_WIND USA_PRES USA_SSHS USA_R34_NE USA_R34_SE USA_R34_SW USA_R34_NW USA_R50_NE USA_R50_SE USA_R50_SW USA_R50_NW USA_R64_NE USA_R64_SE USA_R64_SW USA_R64_NW USA_POCI USA_ROCI USA_RMW USA_EYE TOKYO_LAT TOKYO_LON TOKYO_GRADE TOKYO_WIND TOKYO_PRES TOKYO_R50_DIR TOKYO_R50_LONG TOKYO_R50_SHORT TOKYO_R30_DIR TOKYO_R30_LONG TOKYO_R30_SHORT TOKYO_LAND CMA_LAT CMA_LON CMA_CAT CMA_WIND CMA_PRES HKO_LAT HKO_LON HKO_CAT HKO_WIND HKO_PRES NEWDELHI_LAT NEWDELHI_LON NEWDELHI_GRADE NEWDELHI_WIND NEWDELHI_PRES NEWDELHI_CI NEWDELHI_DP NEWDELHI_POCI REUNION_LAT REUNION_LON REUNION_TYPE REUNION_WIND REUNION_PRES REUNION_TNUM REUNION_CI REUNION_RMW REUNION_R34_NE REUNION_R34_SE REUNION_R34_SW REUNION_R34_NW REUNION_R50_NE REUNION_R50_SE REUNION_R50_SW REUNION_R50_NW REUNION_R64_NE REUNION_R64_SE REUNION_R64_SW REUNION_R64_NW BOM_LAT BOM_LON BOM_TYPE BOM_WIND BOM_PRES BOM_TNUM BOM_CI BOM_RMW BOM_R34_NE BOM_R34_SE BOM_R34_SW BOM_R34_NW BOM_R50_NE BOM_R50_SE BOM_R50_SW BOM_R50_NW BOM_R64_NE BOM_R64_SE BOM_R64_SW BOM_R64_NW BOM_ROCI BOM_POCI BOM_EYE BOM_POS_METHOD BOM_PRES_METHOD NADI_LAT NADI_LON NADI_CAT NADI_WIND NADI_PRES WELLINGTON_LAT WELLINGTON_LON WELLINGTON_WIND WELLINGTON_PRES DS824_LAT DS824_LON DS824_STAGE DS824_WIND DS824_PRES TD9636_LAT TD9636_LON TD9636_STAGE TD9636_WIND TD9636_PRES TD9635_LAT TD9635_LON TD9635_WIND TD9635_PRES TD9635_ROCI NEUMANN_LAT NEUMANN_LON NEUMANN_CLASS NEUMANN_WIND NEUMANN_PRES MLC_LAT MLC_LON MLC_CLASS MLC_WIND MLC_PRES USA_GUST BOM_GUST BOM_GUST_PER REUNION_GUST REUNION_GUST_PER USA_SEAHGT USA_SEARAD_NE USA_SEARAD_SE USA_SEARAD_SW USA_SEARAD_NW STORM_SPEED STORM_DIR
1894270N12284 1894 43 NA CS NOT_NAMED 1894-09-26 12:00:00 TS 11.5000 -76.0000 main 109 109 _____________O -1 11.5000 -76.0000 TS 35 1 273
1894270N12284 1894 43 NA CS NOT_NAMED 1894-09-26 15:00:00 TS 11.5025 -76.0500 main 109 109 _____________P -1 11.5025 -76.0500 TS 35 1 270
1894270N12284 1894 43 NA CS NOT_NAMED 1894-09-26 18:00:00 TS 11.5000 -76.1000 main 117 117 _____________O -1 11.5000 -76.1000 TS 35 1 264
1894270N12284 1894 43 NA CS NOT_NAMED 1894-09-26 21:00:00 TS 11.4925 -76.1500 main 117 125 _____________P -1 11.4925 -76.1500 TS 35 1 270
1894270N12284 1894 43 NA CS NOT_NAMED 1894-09-27 00:00:00 TS 11.5000 -76.2000 main 125 125 _____________O -1 11.5000 -76.2000 TS 35 1 301
1894270N12284 1894 43 NA CS NOT_NAMED 1894-09-27 03:00:00 TS 11.5500 -76.2500 main 132 125 _____________P -1 11.5500 -76.2500 TS 37 1 317
1894270N12284 1894 43 NA CS NOT_NAMED 1894-09-27 06:00:00 TS 11.6000 -76.3000 main 141 141 _____________O -1 11.6000 -76.3000 TS 40 1 299
1894270N12284 1894 43 NA CS NOT_NAMED 1894-09-27 09:00:00 TS 11.6000 -76.3425 main 141 141 _____________P -1 11.6000 -76.3425 TS 40 1 270
1894270N12284 1894 43 NA CS NOT_NAMED 1894-09-27 12:00:00 TS 11.6000 -76.4000 main 149 149 _____________O -1 11.6000 -76.4000 TS 40 2 288
1894270N12284 1894 43 NA CS NOT_NAMED 1894-09-27 15:00:00 TS 11.6500 -76.4925 main 164 164 _____________P -1 11.6500 -76.4925 TS 40 2 297
1894270N12284 1894 43 NA CS NOT_NAMED 1894-09-27 18:00:00 TS 11.7000 -76.6000 main 172 172 _____________O -1 11.7000 -76.6000 TS 40 2 284
1894270N12284 1894 43 NA CS NOT_NAMED 1894-09-27 21:00:00 TS 11.7000 -76.7000 main 179 179 _____________P -1 11.7000 -76.7000 TS 42 2 270
1894270N12284 1894 43 NA CS NOT_NAMED 1894-09-28 00:00:00 TS 11.7000 -76.8000 main 187 187 _____________O -1 11.7000 -76.8000 TS 45 2 284
1894270N12284 1894 43 NA CS NOT_NAMED 1894-09-28 03:00:00 TS 11.7500 -76.9000 main 203 196 _____________P -1 11.7500 -76.9000 TS 45 2 297
1894270N12284 1894 43 NA CS NOT_NAMED 1894-09-28 06:00:00 TS 11.8000 -77.0000 main 211 211 _____________O -1 11.8000 -77.0000 TS 45 2 285
1894270N12284 1894 43 NA CS NOT_NAMED 1894-09-28 09:00:00 TS 11.8000 -77.0925 main 220 220 _____________P -1 11.8000 -77.0925 TS 45 2 270
1894270N12284 1894 43 NA CS NOT_NAMED 1894-09-28 12:00:00 TS 11.8000 -77.2000 main 229 229 _____________O -1 11.8000 -77.2000 TS 45 3 280
1894270N12284 1894 43 NA CS NOT_NAMED 1894-09-28 15:00:00 TS 11.8425 -77.3500 main 238 238 _____________P -1 11.8425 -77.3500 TS 45 3 289
1894270N12284 1894 43 NA CS NOT_NAMED 1894-09-28 18:00:00 TS 11.9000 -77.5000 main 262 262 _____________O -1 11.9000 -77.5000 TS 45 3 293
1894270N12284 1894 43 NA CS NOT_NAMED 1894-09-28 21:00:00 TS 11.9500 -77.6075 main 271 271 _____________P -1 11.9500 -77.6075 TS 45 2 297
1894270N12284 1894 43 NA CS NOT_NAMED 1894-09-29 00:00:00 TS 12.0000 -77.7000 main 286 286 _____________O -1 12.0000 -77.7000 TS 45 2 298
1894270N12284 1894 43 NA CS NOT_NAMED 1894-09-29 03:00:00 TS 12.0500 -77.8000 main 295 295 _____________P -1 12.0500 -77.8000 TS 45 2 297
1894270N12284 1894 43 NA CS NOT_NAMED 1894-09-29 06:00:00 TS 12.1000 -77.9000 main 311 311 _____________O -1 12.1000 -77.9000 TS 45 2 298
1894270N12284 1894 43 NA CS NOT_NAMED 1894-09-29 09:00:00 TS 12.1500 -77.9925 main 315 315 _____________P -1 12.1500 -77.9925 TS 45 2 297
1894270N12284 1894 43 NA CS NOT_NAMED 1894-09-29 12:00:00 TS 12.2000 -78.1000 main 321 317 _____________O -1 12.2000 -78.1000 TS 45 3 292
1894270N12284 1894 43 NA CS NOT_NAMED 1894-09-29 15:00:00 TS 12.2500 -78.2500 main 328 322 _____________P -1 12.2500 -78.2500 TS 47 3 289
1894270N12284 1894 43 NA CS NOT_NAMED 1894-09-29 18:00:00 TS 12.3000 -78.4000 main 322 320 _____________O -1 12.3000 -78.4000 TS 50 3 292
1894270N12284 1894 43 NA CS NOT_NAMED 1894-09-29 21:00:00 TS 12.3500 -78.5075 main 320 320 _____________P -1 12.3500 -78.5075 TS 50 2 297
1894270N12284 1894 43 NA CS NOT_NAMED 1894-09-30 00:00:00 TS 12.4000 -78.6000 main 329 327 _____________O -1 12.4000 -78.6000 TS 50 2 300
1894270N12284 1894 43 NA CS NOT_NAMED 1894-09-30 03:00:00 TS 12.4575 -78.7000 main 338 337 _____________P -1 12.4575 -78.7000 TS 50 2 297
1894270N12284 1894 43 NA CS NOT_NAMED 1894-09-30 06:00:00 TS 12.5000 -78.8000 main 337 336 _____________O -1 12.5000 -78.8000 TS 50 2 278
1894270N12284 1894 43 NA CS NOT_NAMED 1894-09-30 09:00:00 TS 12.4850 -78.8925 main 336 336 _____________P -1 12.4850 -78.8925 TS 50 2 270
1894270N12284 1894 43 NA CS NOT_NAMED 1894-09-30 12:00:00 TS 12.5000 -79.0000 main 336 336 _____________O -1 12.5000 -79.0000 TS 50 3 302
1894270N12284 1894 43 NA CS NOT_NAMED 1894-09-30 15:00:00 TS 12.6350 -79.1425 main 347 347 _____________P -1 12.6350 -79.1425 TS 50 4 316
1894270N12284 1894 43 NA CS NOT_NAMED 1894-09-30 18:00:00 TS 12.8000 -79.3000 main 369 369 _____________O -1 12.8000 -79.3000 TS 50 4 312
1894270N12284 1894 43 NA CS NOT_NAMED 1894-09-30 21:00:00 TS 12.9000 -79.4500 main 380 369 _____________P -1 12.9000 -79.4500 TS 50 1 284
1894270N12284 1894 43 NA CS NOT_NAMED 1894-10-01 00:00:00 TS 12.8333 -79.4333 35 hurdat_atl main 369 369 O____________O hurdat_atl AL051894 12.5000 -79.1000 TS 35 0 13.0000 -79.6000 TS 50 1 301
1894270N12284 1894 43 NA CS NOT_NAMED 1894-10-01 03:00:00 TS 12.9500 -79.5312 main 391 391 P____________P AL051894 12.7501 -79.3124 TS 35 0 13.1500 -79.7500 TS 50 4 323
1894270N12284 1894 43 NA CS NOT_NAMED 1894-10-01 06:00:00 TS 13.1200 -79.6600 35 hurdat_atl main 401 384 O____________O hurdat_atl AL051894 13.0000 -79.5000 TS 35 0 13.3000 -79.9000 TS 50 4 325
1894270N12284 1894 43 NA CS NOT_NAMED 1894-10-01 09:00:00 TS 13.2975 -79.7834 main 384 367 P____________P AL051894 13.2500 -79.6501 TS 37 0 13.3925 -80.0501 TS 50 5 325
1894270N12284 1894 43 NA CS NOT_NAMED 1894-10-01 12:00:00 TS 13.5000 -79.9333 40 hurdat_atl main 367 341 O____________O hurdat_atl AL051894 13.5000 -79.8000 TS 40 0 13.5000 -80.2000 TS 50 5 323
1894270N12284 1894 43 NA CS NOT_NAMED 1894-10-01 15:00:00 TS 13.7283 -80.1117 main 341 314 P____________P AL051894 13.7500 -79.9925 TS 40 0 13.6850 -80.3500 TS 52 6 323
1894270N12284 1894 43 NA CS NOT_NAMED 1894-10-01 18:00:00 TS 13.9667 -80.3000 40 hurdat_atl main 314 291 O____________O hurdat_atl AL051894 14.0000 -80.2000 TS 40 0 13.9000 -80.5000 TS 55 6 323
1894270N12284 1894 43 NA CS NOT_NAMED 1894-10-01 21:00:00 TS 14.2050 -80.4883 main 291 266 P____________P AL051894 14.2575 -80.4075 TS 42 0 14.1000 -80.6500 TS 55 6 323
1894270N12284 1894 43 NA CS NOT_NAMED 1894-10-02 00:00:00 TS 14.4333 -80.6667 45 hurdat_atl main 266 251 O____________O hurdat_atl AL051894 14.5000 -80.6000 TS 45 0 14.3000 -80.8000 TS 55 5 323
1894270N12284 1894 43 NA CS NOT_NAMED 1894-10-02 03:00:00 TS 14.6358 -80.8192 main 251 226 P____________P AL051894 14.7000 -80.7501 TS 45 0 14.5075 -80.9575 TS 55 5 324
1894270N12284 1894 43 NA CS NOT_NAMED 1894-10-02 06:00:00 TS 14.8333 -80.9667 45 hurdat_atl main 226 214 O____________O hurdat_atl AL051894 14.9000 -80.9000 TS 45 0 14.7000 -81.1000 TS 55 5 323
1894270N12284 1894 43 NA CS NOT_NAMED 1894-10-02 09:00:00 TS 15.0400 -81.1309 main 214 194 P____________P AL051894 15.1425 -81.1000 TS 47 0 14.8350 -81.1926 TS 57 5 323
1894270N12284 1894 43 NA CS NOT_NAMED 1894-10-02 12:00:00 TS 15.2667 -81.3000 50 hurdat_atl main 196 180 O____________O hurdat_atl AL051894 15.4000 -81.3000 TS 50 0 15.0000 -81.3000 TS 60 6 327
1894270N12284 1894 43 NA CS NOT_NAMED 1894-10-02 15:00:00 TS 15.5333 -81.4642 main 180 178 P____________P AL051894 15.6575 -81.4501 TS 52 0 15.2850 -81.4924 TS 60 6 329
1894270N12284 1894 43 NA CS NOT_NAMED 1894-10-02 18:00:00 TS 15.8000 -81.6333 55 hurdat_atl main 184 174 O____________O hurdat_atl AL051894 15.9000 -81.6000 TS 55 0 15.6000 -81.7000 TS 60 6 325
1894270N12284 1894 43 NA CS NOT_NAMED 1894-10-02 21:00:00 TS 16.0217 -81.8192 main 178 178 P____________P AL051894 16.1075 -81.8000 TS 57 0 15.8500 -81.8576 TS 60 6 321
1894270N12284 1894 43 NA CS NOT_NAMED 1894-10-03 00:00:00 TS 16.2333 -82.0000 60 hurdat_atl main 178 178 O____________O hurdat_atl AL051894 16.3000 -82.0000 TS 60 0 16.1000 -82.0000 TS 60 5 324
1894270N12284 1894 43 NA CS NOT_NAMED 1894-10-03 03:00:00 TS 16.4616 -82.1551 main 185 185 P____________P AL051894 16.4925 -82.1576 TS 60 0 16.4000 -82.1500 TS 60 6 328
1894270N12284 1894 43 NA CS NOT_NAMED 1894-10-03 06:00:00 TS 16.7000 -82.3000 60 hurdat_atl main 195 195 O____________O hurdat_atl AL051894 16.7000 -82.3000 TS 60 0 16.7000 -82.3000 TS 60 6 331
1894270N12284 1894 43 NA CS NOT_NAMED 1894-10-03 09:00:00 TS 16.9475 -82.4401 main 208 208 P____________P AL051894 16.9425 -82.4426 TS 62 0 16.9574 -82.4351 TS 62 6 330
1894270N12284 1894 43 NA CS NOT_NAMED 1894-10-03 12:00:00 TS 17.2000 -82.6000 65 hurdat_atl main 229 229 O____________O hurdat_atl AL051894 17.2000 -82.6000 HU 65 1 17.2000 -82.6000 HU 65 6 325
1894270N12284 1894 43 NA CS NOT_NAMED 1894-10-03 15:00:00 TS 17.4425 -82.8092 main 238 238 P____________P AL051894 17.4425 -82.7925 HU 67 1 17.4425 -82.8425 HU 67 7 320
1894270N12284 1894 43 NA CS NOT_NAMED 1894-10-03 18:00:00 TS 17.7000 -83.0333 70 hurdat_atl main 253 248 O____________O hurdat_atl AL051894 17.7000 -83.0000 HU 70 1 17.7000 -83.1000 HU 70 7 324
1894270N12284 1894 43 NA CS NOT_NAMED 1894-10-03 21:00:00 TS 17.9925 -83.2334 main 272 268 P____________P AL051894 17.9925 -83.2000 HU 72 1 17.9924 -83.3001 HU 72 7 328
1894270N12284 1894 43 NA CS NOT_NAMED 1894-10-04 00:00:00 TS 18.3000 -83.4333 75 hurdat_atl main 295 292 O____________O hurdat_atl AL051894 18.3000 -83.4000 HU 75 1 18.3000 -83.5000 HU 75 7 327
1894270N12284 1894 43 NA CS NOT_NAMED 1894-10-04 03:00:00 TS 18.6000 -83.6476 main 322 298 P____________P AL051894 18.6000 -83.6001 HU 75 1 18.6000 -83.7426 HU 77 7 326
1894270N12284 1894 43 NA CS NOT_NAMED 1894-10-04 06:00:00 TS 18.9000 -83.8667 75 hurdat_atl main 302 280 O____________O hurdat_atl AL051894 18.9000 -83.8000 HU 75 1 18.9000 -84.0000 HU 80 7 326
1894270N12284 1894 43 NA CS NOT_NAMED 1894-10-04 09:00:00 TS 19.2075 -84.0884 main 280 258 P____________P AL051894 19.2075 -84.0075 HU 77 1 19.2075 -84.2501 HU 80 7 326
1894270N12284 1894 43 NA CS NOT_NAMED 1894-10-04 12:00:00 TS 19.5000 -84.3000 80 hurdat_atl main 258 234 O____________O hurdat_atl AL051894 19.5000 -84.2000 HU 80 1 19.5000 -84.5000 HU 80 7 325
1894270N12284 1894 43 NA CS NOT_NAMED 1894-10-04 15:00:00 TS 19.7525 -84.4860 main 223 201 P____________P AL051894 19.7499 -84.3502 HU 82 1 19.7575 -84.7576 HU 82 6 325
1894270N12284 1894 43 NA CS NOT_NAMED 1894-10-04 18:00:00 TS 20.0000 -84.6667 85 hurdat_atl main 201 168 O____________O hurdat_atl AL051894 20.0000 -84.5000 HU 85 2 20.0000 -85.0000 HU 85 6 326
1894270N12284 1894 43 NA CS NOT_NAMED 1894-10-04 21:00:00 TS 20.2783 -84.8642 main 168 137 P____________P AL051894 20.2925 -84.6925 HU 87 2 20.2499 -85.2076 HU 87 7 327
1894270N12284 1894 43 NA CS NOT_NAMED 1894-10-05 00:00:00 TS 20.5667 -85.0667 90 hurdat_atl main 137 119 O____________O hurdat_atl AL051894 20.6000 -84.9000 HU 90 2 20.5000 -85.4000 HU 90 7 327
1894270N12284 1894 43 NA CS NOT_NAMED 1894-10-05 03:00:00 TS 20.8550 -85.2717 main 113 98 P____________P AL051894 20.9075 -85.1075 HU 90 2 20.7500 -85.6001 HU 90 7 327
1894270N12284 1894 43 NA CS NOT_NAMED 1894-10-05 06:00:00 TS 21.1333 -85.4667 90 hurdat_atl main 103 83 O____________O hurdat_atl AL051894 21.2000 -85.3000 HU 90 2 21.0000 -85.8000 HU 90 6 328
1894270N12284 1894 43 NA CS NOT_NAMED 1894-10-05 09:00:00 TS 21.3958 -85.6359 main 83 79 P____________P AL051894 21.4725 -85.4576 HU 92 2 21.2424 -85.9926 HU 92 6 328
1894270N12284 1894 43 NA CS NOT_NAMED 1894-10-05 12:00:00 TS 21.6333 -85.8000 95 hurdat_atl main 89 85 O____________O hurdat_atl AL051894 21.7000 -85.6000 HU 95 2 21.5000 -86.2000 HU 95 5 324
1894270N12284 1894 43 NA GM NOT_NAMED 1894-10-05 15:00:00 TS 21.8333 -85.9834 main 99 98 P____________P AL051894 21.8500 -85.7501 HU 95 2 21.8000 -86.4499 HU 95 5 320
1894270N12284 1894 43 NA GM NOT_NAMED 1894-10-05 18:00:00 TS 22.0333 -86.1667 95 hurdat_atl main 98 98 O____________O hurdat_atl AL051894 22.0000 -85.9000 HU 95 2 22.1000 -86.7000 HU 95 6 324
1894270N12284 1894 43 NA GM NOT_NAMED 1894-10-05 21:00:00 TS 22.2758 -86.3334 main 114 108 P____________P AL051894 22.2350 -86.0500 HU 97 3 22.3574 -86.9002 HU 97 6 328
1894270N12284 1894 43 NA GM NOT_NAMED 1894-10-06 00:00:00 TS 22.5333 -86.5000 100 hurdat_atl main 123 123 O____________O hurdat_atl AL051894 22.5000 -86.2000 HU 100 3 22.6000 -87.1000 MH 100 6 328
1894270N12284 1894 43 NA GM NOT_NAMED 1894-10-06 03:00:00 TS 22.7708 -86.6735 main 148 148 P____________P AL051894 22.7349 -86.3352 HU 100 3 22.8425 -87.3500 MH 100 6 326
1894270N12284 1894 43 NA GM NOT_NAMED 1894-10-06 06:00:00 TS 23.0333 -86.8667 100 hurdat_atl main 168 168 O____________O hurdat_atl AL051894 23.0000 -86.5000 HU 100 3 23.1000 -87.6000 MH 100 7 327
1894270N12284 1894 43 NA GM NOT_NAMED 1894-10-06 09:00:00 TS 23.3617 -87.0974 main 212 212 P____________P AL051894 23.3425 -86.7349 HU 102 3 23.4000 -87.8225 MH 102 8 327
1894270N12284 1894 43 NA GM NOT_NAMED 1894-10-06 12:00:00 TS 23.7000 -87.3333 105 hurdat_atl main 246 246 O____________O hurdat_atl AL051894 23.7000 -87.0000 HU 105 3 23.7000 -88.0000 MH 105 8 327
1894270N12284 1894 43 NA GM NOT_NAMED 1894-10-06 15:00:00 TS 24.0008 -87.5459 main 280 279 P____________P AL051894 24.0225 -87.2724 HU 105 3 23.9574 -88.0928 MH 105 7 327
1894270N12284 1894 43 NA GM NOT_NAMED 1894-10-06 18:00:00 TS 24.2667 -87.7333 105 hurdat_atl main 312 312 O____________O hurdat_atl AL051894 24.3000 -87.5000 HU 105 3 24.2000 -88.2000 MH 105 6 327
1894270N12284 1894 43 NA GM NOT_NAMED 1894-10-06 21:00:00 TS 24.4883 -87.8959 main 335 335 P____________P AL051894 24.5074 -87.6078 HU 105 3 24.4502 -88.4722 MH 105 5 328
1894270N12284 1894 43 NA GM NOT_NAMED 1894-10-07 00:00:00 TS 24.7000 -88.0333 105 hurdat_atl main 357 357 O____________O hurdat_atl AL051894 24.7000 -87.7000 HU 105 3 24.7000 -88.7000 MH 105 5 332
1894270N12284 1894 43 NA GM NOT_NAMED 1894-10-07 03:00:00 TS 24.9450 -88.1600 main 380 380 P____________P AL051894 24.9426 -87.8999 HU 105 3 24.9500 -88.6803 MH 105 5 337
1894270N12284 1894 43 NA GM NOT_NAMED 1894-10-07 06:00:00 TS 25.2000 -88.2667 105 hurdat_atl main 413 407 O____________O hurdat_atl AL051894 25.2000 -88.1000 HU 105 3 25.2000 -88.6000 MH 105 5 341
1894270N12284 1894 43 NA GM NOT_NAMED 1894-10-07 09:00:00 TS 25.4600 -88.3625 main 396 374 P____________P AL051894 25.4575 -88.2226 HU 105 3 25.4650 -88.6424 MH 105 5 343
1894270N12284 1894 43 NA GM NOT_NAMED 1894-10-07 12:00:00 TS 25.7000 -88.4333 105 hurdat_atl main 374 351 O____________O hurdat_atl AL051894 25.7000 -88.3000 HU 105 3 25.7000 -88.7000 MH 105 4 346
1894270N12284 1894 43 NA GM NOT_NAMED 1894-10-07 15:00:00 TS 25.8858 -88.4817 main 351 329 P____________P AL051894 25.9000 -88.3650 HU 105 3 25.8575 -88.7150 MH 105 4 351
1894270N12284 1894 43 NA GM NOT_NAMED 1894-10-07 18:00:00 TS 26.0667 -88.5000 105 hurdat_atl main 329 307 O____________O hurdat_atl AL051894 26.1000 -88.4000 HU 105 3 26.0000 -88.7000 MH 105 4 0
1894270N12284 1894 43 NA GM NOT_NAMED 1894-10-07 21:00:00 TS 26.2875 -88.4909 main 307 285 P____________P AL051894 26.3425 -88.4075 HU 105 3 26.1775 -88.6575 MH 105 5 5
1894270N12284 1894 43 NA GM NOT_NAMED 1894-10-08 00:00:00 TS 26.5333 -88.4667 105 hurdat_atl main 285 252 O____________O hurdat_atl AL051894 26.6000 -88.4000 HU 105 3 26.4000 -88.6000 MH 105 5 5
1894270N12284 1894 43 NA GM NOT_NAMED 1894-10-08 03:00:00 TS 26.7925 -88.4575 main 252 222 P____________P AL051894 26.8425 -88.4074 HU 105 3 26.6925 -88.5574 MH 107 5 5
1894270N12284 1894 43 NA GM NOT_NAMED 1894-10-08 06:00:00 TS 27.0667 -88.4333 105 hurdat_atl main 222 201 O____________O hurdat_atl AL051894 27.1000 -88.4000 HU 105 3 27.0000 -88.5000 MH 110 949 5 6
1894270N12284 1894 43 NA GM NOT_NAMED 1894-10-08 09:00:00 TS 27.3274 -88.3989 main 201 174 P____________P AL051894 27.3624 -88.3945 HU 105 3 27.2575 -88.4075 MH 107 952 6 12
1894270N12284 1894 43 NA GM NOT_NAMED 1894-10-08 12:00:00 TS 27.6333 -88.3000 105 hurdat_atl main 174 142 O____________I hurdat_atl AL051894 27.7000 -88.3000 HU 105 3 27.5000 -88.3000 MH 105 955 7 16
1894270N12284 1894 43 NA GM NOT_NAMED 1894-10-08 15:00:00 TS 28.0168 -88.1732 main 142 132 P____________P AL051894 28.1695 -88.0969 HU 105 3 27.7114 -88.3258 MH 105 958 9 26
1894270N12284 1894 43 NA GM NOT_NAMED 1894-10-08 18:00:00 TS 28.4667 -87.8333 105 hurdat_atl main 134 134 O____________O hurdat_atl AL051894 28.7000 -87.7000 HU 105 3 28.0000 -88.1000 MH 105 961 13 44
1894270N12284 1894 43 NA GM NOT_NAMED 1894-10-08 21:00:00 TS 28.9547 -87.1404 main 145 93 P____________P AL051894 29.2002 -87.0750 HU 105 3 28.4638 -87.2713 MH 105 962 17 54
1894270N12284 1894 43 NA GM NOT_NAMED 1894-10-09 00:00:00 TS 29.4667 -86.2667 105 hurdat_atl main 87 9 O____________O hurdat_atl AL051894 29.7000 -86.3000 HU 105 3 29.0000 -86.2000 MH 105 963 18 56
1894270N12284 1894 43 NA GM NOT_NAMED 1894-10-09 03:00:00 TS 29.9664 -85.4330 105 hurdat_atl main 0 0 O____________P hurdat_atl AL051894 30.2000 -85.5000 L HU 105 3 29.4991 -85.2989 MH 95 18 55
1894270N12284 1894 43 NA NA NOT_NAMED 1894-10-09 06:00:00 TS 30.4667 -84.6000 85 hurdat_atl main 0 0 O____________O hurdat_atl AL051894 30.7000 -84.7000 HU 85 2 30.0000 -84.4000 HU 85 17 56
1894270N12284 1894 43 NA NA NOT_NAMED 1894-10-09 09:00:00 TS 30.9265 -83.7759 main 0 0 P____________P AL051894 31.1777 -83.9258 HU 77 1 30.4240 -83.4762 HU 77 18 57
1894270N12284 1894 43 NA NA NOT_NAMED 1894-10-09 12:00:00 TS 31.4667 -82.8333 70 hurdat_atl main 0 0 O____________O hurdat_atl AL051894 31.7000 -83.0000 HU 70 1 31.0000 -82.5000 HU 70 22 56
1894270N12284 1894 43 NA NA NOT_NAMED 1894-10-09 15:00:00 TS 32.1432 -81.6413 main 0 0 P____________P AL051894 32.2606 -81.7292 HU 65 1 31.9085 -81.4657 HU 65 26 54
1894270N12284 1894 43 NA NA NOT_NAMED 1894-10-09 18:00:00 TS 33.0000 -80.3000 60 hurdat_atl main 0 0 O____________O hurdat_atl AL051894 33.0000 -80.3000 TS 60 0 33.0000 -80.3000 TS 60 30 51
1894270N12284 1894 43 NA NA NOT_NAMED 1894-10-09 21:00:00 TS 34.0510 -78.8619 main 0 0 P____________P AL051894 34.0331 -78.8498 TS 60 0 34.0867 -78.8861 TS 60 32 47
1894270N12284 1894 43 NA NA NOT_NAMED 1894-10-10 00:00:00 TS 35.2000 -77.5000 60 hurdat_atl main 0 0 O____________O hurdat_atl AL051894 35.2000 -77.5000 TS 60 0 35.2000 -77.5000 TS 60 30 42
1894270N12284 1894 43 NA NA NOT_NAMED 1894-10-10 03:00:00 TS 36.3132 -76.3996 main 0 0 P____________P AL051894 36.3132 -76.3996 TS 62 0 36.3132 -76.3996 TS 62 27 36
1894270N12284 1894 43 NA NA NOT_NAMED 1894-10-10 06:00:00 TS 37.4000 -75.5000 65 hurdat_atl main 20 17 O____________O hurdat_atl AL051894 37.4000 -75.5000 HU 65 1 37.4000 -75.5000 HU 65 24 32
1894270N12284 1894 43 NA NA NOT_NAMED 1894-10-10 09:00:00 TS 38.3560 -74.7701 main 26 26 P____________P AL051894 38.3501 -74.7804 HU 70 1 38.3678 -74.7496 HU 70 23 30
1894270N12284 1894 43 NA NA NOT_NAMED 1894-10-10 12:00:00 TS 39.4000 -74.0000 75 hurdat_atl main 27 13 O____________O hurdat_atl AL051894 39.4000 -74.0000 HU 75 1 39.4000 -74.0000 HU 75 27 32
1894270N12284 1894 43 NA NA NOT_NAMED 1894-10-10 15:00:00 TS 40.6804 -72.9221 75 hurdat_atl main 11 0 O____________P hurdat_atl AL051894 40.7000 -72.9000 L HU 75 1 40.6411 -72.9662 HU 65 30 31
1894270N12284 1894 43 NA NA NOT_NAMED 1894-10-10 18:00:00 TS 42.0000 -71.9000 55 hurdat_atl main 0 0 O____________O hurdat_atl AL051894 42.0000 -71.9000 TS 55 0 42.0000 -71.9000 TS 55 31 28
1894270N12284 1894 43 NA NA NOT_NAMED 1894-10-10 21:00:00 TS 43.3808 -70.9891 main 0 0 P____________P AL051894 43.3792 -70.9901 TS 50 0 43.3842 -70.9870 TS 50 31 24
1894270N12284 1894 43 NA NA NOT_NAMED 1894-10-11 00:00:00 ET 44.8000 -70.2000 45 hurdat_atl main 0 0 O____________O hurdat_atl AL051894 44.8000 -70.2000 EX 45 -4 44.8000 -70.2000 EX 45 30 20
1894270N12284 1894 43 NA NA NOT_NAMED 1894-10-11 03:00:00 ET 46.2286 -69.5365 main 0 0 P____________P AL051894 46.2286 -69.5365 EX 45 -4 46.2286 -69.5365 EX 45 29 18
1894270N12284 1894 43 NA NA NOT_NAMED 1894-10-11 06:00:00 ET 47.6000 -68.9000 45 hurdat_atl main 0 0 O____________O hurdat_atl AL051894 47.6000 -68.9000 EX 45 -4 47.6000 -68.9000 EX 45 28 20
1894270N12284 1894 43 NA NA NOT_NAMED 1894-10-11 09:00:00 ET 48.8604 -68.0855 main 23 0 P____________P AL051894 48.8604 -68.0855 EX 45 -4 48.8604 -68.0855 EX 45 26 24
1894270N12284 1894 43 NA NA NOT_NAMED 1894-10-11 12:00:00 ET 50.0000 -67.3000 45 hurdat_atl main 0 0 O____________O hurdat_atl AL051894 50.0000 -67.3000 EX 45 -4 50.0000 -67.3000 EX 45 24 22
1894270N12284 1894 43 NA NA NOT_NAMED 1894-10-11 15:00:00 ET 51.0516 -66.7002 main 0 0 P____________P AL051894 51.0516 -66.7002 EX 42 -4 51.0516 -66.7002 EX 42 21 19
1894270N12284 1894 43 NA NA NOT_NAMED 1894-10-11 18:00:00 ET 52.0000 -66.2000 40 hurdat_atl main 0 0 O____________O hurdat_atl AL051894 52.0000 -66.2000 EX 40 -4 52.0000 -66.2000 EX 40 19 19
1894270N12284 1894 43 NA NA NOT_NAMED 1894-10-11 21:00:00 ET 52.8947 -65.6830 main 0 0 P____________P AL051894 52.8947 -65.6830 EX 37 -4 52.8947 -65.6830 EX 37 18 20
1894270N12284 1894 43 NA NA NOT_NAMED 1894-10-12 00:00:00 ET 53.7000 -65.2000 35 hurdat_atl main 0 0 O____________O hurdat_atl AL051894 53.7000 -65.2000 EX 35 -4 53.7000 -65.2000 EX 35 16 20
1894270N12284 1894 43 NA NA NOT_NAMED 1894-10-12 03:00:00 ET 54.4373 -64.7332 main 0 0 P____________P AL051894 54.4373 -64.7332 EX 35 -4 54.4373 -64.7332 EX 35 15 20
1894270N12284 1894 43 NA NA NOT_NAMED 1894-10-12 06:00:00 ET 55.1000 -64.3000 35 hurdat_atl main 0 0 O____________O hurdat_atl AL051894 55.1000 -64.3000 EX 35 -4 55.1000 -64.3000 EX 35 14 21
1894270N12284 1894 43 NA NA NOT_NAMED 1894-10-12 09:00:00 ET 55.7128 -63.8949 main 0 0 P____________P AL051894 55.7128 -63.8949 EX 35 -4 55.7128 -63.8949 EX 35 13 21
1894270N12284 1894 43 NA NA NOT_NAMED 1894-10-12 12:00:00 ET 56.3000 -63.5000 35 hurdat_atl main 0 O____________O hurdat_atl AL051894 56.3000 -63.5000 EX 35 -4 56.3000 -63.5000 EX 35 12 20

IBTrACS Databaseについて

本データベースは、米国NOAAが公開する1842年以降の世界の熱帯低気圧のベストトラックデータアーカイブInternational Best Track Archive for Climate Stewardship (IBTrACS)を、ウェブで閲覧しやすい形式に変換したものです。

最終更新日:2021-11-26